Time;durP1;ratioP1;P1;durP2;ratioP2;P2;SDS_P1;SDS_P2;PMS_P1;PMS_P2;Temp;Humidity;BMP_temperature;BMP_pressure;BME280_temperature;BME280_humidity;BME280_pressure;Samples;Min_cycle;Max_cycle;Signal;HPM_P1;HPM_P2
2023/07/08 00:00:16;;;;;;;11.00;7.13;;;18.60;99.20;;;;;;4970995;28;20473;-70
2023/07/08 00:02:43;;;;;;;8.67;6.83;;;18.60;99.00;;;;;;4971202;28;20465;-71
2023/07/08 00:05:11;;;;;;;10.60;6.97;;;18.60;99.10;;;;;;4970950;28;20466;-71
2023/07/08 00:07:38;;;;;;;9.73;6.90;;;18.50;99.10;;;;;;4971256;28;20497;-70
2023/07/08 00:10:13;;;;;;;7.73;5.70;;;18.50;99.20;;;;;;4970822;28;20882;-71
2023/07/08 00:12:42;;;;;;;7.67;5.50;;;18.50;98.60;;;;;;4970502;28;20487;-69
2023/07/08 00:15:09;;;;;;;7.30;5.03;;;18.40;99.10;;;;;;4970932;28;20460;-71
2023/07/08 00:17:36;;;;;;;8.70;4.90;;;18.40;99.20;;;;;;4971101;28;21092;-71
2023/07/08 00:20:11;;;;;;;6.40;4.97;;;18.40;99.40;;;;;;4971119;28;20487;-71
2023/07/08 00:22:40;;;;;;;7.17;5.23;;;18.30;99.50;;;;;;4971004;28;20479;-71
2023/07/08 00:25:08;;;;;;;6.27;4.13;;;18.30;99.50;;;;;;4970847;28;20496;-71
2023/07/08 00:27:34;;;;;;;8.50;5.13;;;18.30;99.40;;;;;;4970776;28;20491;-71
2023/07/08 00:30:02;;;;;;;5.57;4.23;;;18.20;99.50;;;;;;4971325;28;20472;-70
2023/07/08 00:32:29;;;;;;;8.00;4.43;;;18.20;99.60;;;;;;4970707;28;20966;-70
2023/07/08 00:34:56;;;;;;;6.10;4.10;;;18.20;99.50;;;;;;4970587;28;20524;-71
2023/07/08 00:37:23;;;;;;;6.47;4.37;;;18.20;99.80;;;;;;4971039;28;20490;-70
2023/07/08 00:39:49;;;;;;;5.27;3.80;;;18.10;99.80;;;;;;4975491;28;20998;-70
2023/07/08 00:42:18;;;;;;;5.47;4.33;;;18.10;99.70;;;;;;4994093;28;20986;-70
2023/07/08 00:44:45;;;;;;;5.03;4.10;;;18.10;99.60;;;;;;4993369;28;20470;-70
2023/07/08 00:47:16;;;;;;;5.00;4.27;;;18.00;99.50;;;;;;4994156;28;20468;-70
2023/07/08 00:49:46;;;;;;;7.30;4.80;;;18.00;99.50;;;;;;4993910;28;20460;-70
2023/07/08 00:52:21;;;;;;;5.30;3.30;;;17.90;99.50;;;;;;4994113;28;20469;-70
2023/07/08 00:54:51;;;;;;;6.00;4.20;;;17.90;99.60;;;;;;4993583;28;21020;-70
2023/07/08 00:57:17;;;;;;;4.67;3.83;;;17.90;99.80;;;;;;4978899;28;21026;-70
2023/07/08 00:59:49;;;;;;;6.90;4.07;;;17.90;99.70;;;;;;4974181;28;20483;-69
2023/07/08 01:02:21;;;;;;;6.43;3.90;;;17.80;99.90;;;;;;4974587;28;20471;-70
2023/07/08 01:04:56;;;;;;;6.00;4.13;;;17.80;99.90;;;;;;4973964;28;20463;-70
2023/07/08 01:07:25;;;;;;;7.40;4.90;;;17.80;99.90;;;;;;4973664;28;20483;-71
2023/07/08 01:09:56;;;;;;;6.07;4.60;;;17.70;99.90;;;;;;4973661;28;20514;-70
2023/07/08 01:12:31;;;;;;;7.97;4.60;;;17.70;99.90;;;;;;4974123;28;20467;-69
2023/07/08 01:15:00;;;;;;;5.40;4.20;;;17.70;99.90;;;;;;4973883;28;20472;-69
2023/07/08 01:17:32;;;;;;;5.20;4.03;;;17.60;99.90;;;;;;4973964;28;20851;-70
2023/07/08 01:19:59;;;;;;;6.00;3.87;;;17.60;99.90;;;;;;4966988;28;20558;-70
2023/07/08 01:22:32;;;;;;;5.33;4.40;;;17.50;99.90;;;;;;4973949;28;20464;-70
2023/07/08 01:25:03;;;;;;;6.17;3.87;;;17.50;99.90;;;;;;4973516;28;20463;-71
2023/07/08 01:27:32;;;;;;;5.67;4.30;;;17.50;99.90;;;;;;4973495;28;20563;-71
2023/07/08 01:29:59;;;;;;;5.93;4.40;;;17.40;99.90;;;;;;4973981;28;20490;-70
2023/07/08 01:32:26;;;;;;;6.20;4.83;;;17.40;99.90;;;;;;4973762;28;20458;-71
2023/07/08 01:35:00;;;;;;;5.33;3.93;;;17.40;99.90;;;;;;4973200;28;20472;-71
2023/07/08 01:37:33;;;;;;;6.90;4.17;;;17.30;99.90;;;;;;4973658;28;20496;-71
2023/07/08 01:40:22;;;;;;;5.07;3.73;;;17.30;99.90;;;;;;4966578;28;21217;-71
2023/07/08 01:42:49;;;;;;;5.67;3.73;;;17.30;99.90;;;;;;4973589;28;20463;-70
2023/07/08 01:45:17;;;;;;;7.27;4.40;;;17.30;99.90;;;;;;4973134;28;20475;-71
2023/07/08 01:47:48;;;;;;;5.90;3.87;;;17.20;99.90;;;;;;4973394;28;20488;-70
2023/07/08 01:50:15;;;;;;;6.13;4.10;;;17.20;99.90;;;;;;4973748;28;20464;-69
2023/07/08 01:52:44;;;;;;;5.53;4.63;;;17.20;99.90;;;;;;4972231;28;20470;-69
2023/07/08 01:55:10;;;;;;;5.50;4.10;;;17.10;99.90;;;;;;4973090;28;20478;-70
2023/07/08 01:57:37;;;;;;;6.03;4.70;;;17.10;99.90;;;;;;4973119;28;20491;-70
2023/07/08 02:00:06;;;;;;;5.10;3.87;;;17.10;99.90;;;;;;4973332;28;21070;-70
2023/07/08 02:02:32;;;;;;;5.00;3.70;;;17.10;99.90;;;;;;4973028;28;20550;-70
2023/07/08 02:04:59;;;;;;;4.93;3.77;;;17.00;99.90;;;;;;4972951;28;20459;-70
2023/07/08 02:07:26;;;;;;;6.77;4.50;;;17.00;99.90;;;;;;4973132;28;20483;-70
2023/07/08 02:09:54;;;;;;;6.03;4.40;;;17.00;99.90;;;;;;4972339;28;20470;-70
2023/07/08 02:12:21;;;;;;;6.00;4.20;;;16.90;99.90;;;;;;4973055;28;20956;-70
2023/07/08 02:14:48;;;;;;;4.87;3.60;;;16.90;99.90;;;;;;4972441;28;20985;-70
2023/07/08 02:17:16;;;;;;;7.37;4.50;;;16.90;99.90;;;;;;4972959;28;20991;-69
2023/07/08 02:19:43;;;;;;;6.30;4.60;;;16.80;99.90;;;;;;4972780;28;20490;-70
2023/07/08 02:22:10;;;;;;;5.57;4.50;;;16.80;99.90;;;;;;4973017;28;20477;-70
2023/07/08 02:24:36;;;;;;;5.27;4.10;;;16.80;99.90;;;;;;4972128;28;21002;-70
2023/07/08 02:27:05;;;;;;;5.80;4.27;;;16.80;99.90;;;;;;4972936;28;20490;-69
2023/07/08 02:29:32;;;;;;;4.77;3.60;;;16.80;99.90;;;;;;4972818;28;20550;-70
2023/07/08 02:31:59;;;;;;;5.60;3.73;;;16.70;99.90;;;;;;4972675;28;20842;-68
2023/07/08 02:34:26;;;;;;;5.77;4.20;;;16.80;99.90;;;;;;4972188;28;20805;-70
2023/07/08 02:36:52;;;;;;;5.50;3.93;;;16.80;99.90;;;;;;4972468;28;20470;-70
2023/07/08 02:39:19;;;;;;;6.57;4.00;;;16.70;99.90;;;;;;4972402;28;20487;-70
2023/07/08 02:41:46;;;;;;;8.73;4.50;;;16.70;99.90;;;;;;4972531;28;20455;-69
2023/07/08 02:44:14;;;;;;;7.03;4.20;;;16.70;99.90;;;;;;4971994;28;20463;-70
2023/07/08 02:46:40;;;;;;;4.77;4.17;;;16.70;99.90;;;;;;4972131;28;20468;-70
2023/07/08 02:49:07;;;;;;;6.33;4.53;;;16.80;99.90;;;;;;4972395;28;20990;-70
2023/07/08 02:51:34;;;;;;;7.83;3.83;;;16.80;99.90;;;;;;4972257;28;20918;-70
2023/07/08 02:54:01;;;;;;;6.00;4.07;;;16.70;99.90;;;;;;4971583;28;20464;-70
2023/07/08 02:56:28;;;;;;;5.93;4.20;;;16.70;99.90;;;;;;4972231;28;20458;-71
2023/07/08 02:58:54;;;;;;;4.50;3.57;;;16.70;99.90;;;;;;4971900;28;20487;-70
2023/07/08 03:01:23;;;;;;;5.73;3.70;;;16.70;99.90;;;;;;4978420;28;20827;-71
2023/07/08 03:03:50;;;;;;;6.27;4.37;;;16.80;99.90;;;;;;4989862;28;20454;-70
2023/07/08 03:06:17;;;;;;;6.33;4.10;;;16.80;99.90;;;;;;4991577;28;21008;-70
2023/07/08 03:08:43;;;;;;;7.33;4.60;;;16.90;99.90;;;;;;4990904;28;20485;-70
2023/07/08 03:11:10;;;;;;;5.17;3.80;;;16.90;99.90;;;;;;4991328;28;20467;-71
2023/07/08 03:13:37;;;;;;;6.80;4.60;;;17.00;99.90;;;;;;4990747;28;20965;-71
2023/07/08 03:16:12;;;;;;;4.80;4.00;;;17.00;99.90;;;;;;4980102;28;20467;-71
2023/07/08 03:18:46;;;;;;;6.10;4.23;;;17.00;99.90;;;;;;4971784;28;20496;-70
2023/07/08 03:21:14;;;;;;;5.23;3.63;;;17.00;99.90;;;;;;4972195;28;20962;-70
2023/07/08 03:23:41;;;;;;;5.20;3.40;;;17.10;99.90;;;;;;4971258;28;20502;-70
2023/07/08 03:26:09;;;;;;;5.60;4.10;;;17.00;99.90;;;;;;4975867;28;20462;-70
2023/07/08 03:28:35;;;;;;;4.73;4.00;;;17.00;99.90;;;;;;4991041;28;20485;-70
2023/07/08 03:31:02;;;;;;;4.80;4.07;;;17.00;99.90;;;;;;4990811;28;20493;-68
2023/07/08 03:33:29;;;;;;;5.70;3.80;;;17.00;99.90;;;;;;4990518;28;20459;-70
2023/07/08 03:35:57;;;;;;;6.30;4.30;;;17.00;99.90;;;;;;4991039;28;20999;-70
2023/07/08 03:38:24;;;;;;;5.97;4.30;;;17.10;99.90;;;;;;4990833;28;20487;-70
2023/07/08 03:40:51;;;;;;;6.47;4.00;;;17.00;99.90;;;;;;4990635;28;20486;-70
2023/07/08 03:43:17;;;;;;;5.10;4.40;;;17.00;99.90;;;;;;4990279;28;20496;-69
2023/07/08 03:45:44;;;;;;;8.20;5.00;;;17.00;99.90;;;;;;4990440;28;20470;-70
2023/07/08 03:48:11;;;;;;;4.63;3.87;;;17.00;99.90;;;;;;4990832;28;20482;-69
2023/07/08 03:50:39;;;;;;;7.77;4.70;;;17.00;99.90;;;;;;4990679;28;20465;-70
2023/07/08 03:53:07;;;;;;;5.53;4.10;;;16.90;99.90;;;;;;4979295;28;20518;-69
2023/07/08 03:55:33;;;;;;;6.00;4.37;;;16.90;99.90;;;;;;4970969;28;20538;-70
2023/07/08 03:58:00;;;;;;;7.40;4.33;;;16.90;99.90;;;;;;4971048;28;21020;-70
2023/07/08 04:00:27;;;;;;;5.33;4.37;;;16.90;99.90;;;;;;4971254;28;20489;-70
2023/07/08 04:02:53;;;;;;;7.03;4.37;;;16.90;99.90;;;;;;4972285;28;20482;-70
2023/07/08 04:05:22;;;;;;;5.30;4.20;;;16.90;99.90;;;;;;4990233;28;20462;-69
2023/07/08 04:07:49;;;;;;;6.30;3.90;;;16.90;99.90;;;;;;4990184;28;20482;-70
2023/07/08 04:10:18;;;;;;;5.97;3.80;;;16.90;99.90;;;;;;4990598;28;20470;-69
2023/07/08 04:12:44;;;;;;;6.43;4.30;;;16.90;99.90;;;;;;4990157;28;20469;-69
2023/07/08 04:15:12;;;;;;;4.83;3.87;;;17.00;99.90;;;;;;4992152;28;20466;-70
2023/07/08 04:17:42;;;;;;;6.63;3.73;;;17.00;99.90;;;;;;4994412;28;20493;-68
2023/07/08 04:20:10;;;;;;;6.43;4.10;;;17.00;99.90;;;;;;4994156;28;20495;-69
2023/07/08 04:22:37;;;;;;;6.93;5.10;;;17.10;99.90;;;;;;4994323;28;20469;-70
2023/07/08 04:25:05;;;;;;;7.00;4.90;;;17.10;99.90;;;;;;4993796;28;20493;-71
2023/07/08 04:27:34;;;;;;;6.70;4.50;;;17.20;99.90;;;;;;4994293;28;20561;-70
2023/07/08 04:30:00;;;;;;;6.33;4.33;;;17.30;99.90;;;;;;4994310;28;20465;-70
2023/07/08 04:32:27;;;;;;;7.00;4.37;;;17.30;99.90;;;;;;4994331;28;20469;-70
2023/07/08 04:34:54;;;;;;;5.03;3.70;;;17.30;99.90;;;;;;4993606;28;20465;-70
2023/07/08 04:37:21;;;;;;;5.57;3.80;;;17.40;99.90;;;;;;4994129;28;20487;-70
2023/07/08 04:39:48;;;;;;;5.80;4.10;;;17.50;99.90;;;;;;4993977;28;20488;-70
2023/07/08 04:42:17;;;;;;;7.93;4.00;;;17.50;99.90;;;;;;4975023;28;20459;-71
2023/07/08 04:44:45;;;;;;;6.40;4.50;;;17.60;99.90;;;;;;4974468;28;20522;-71
2023/07/08 04:47:13;;;;;;;5.28;4.50;;;17.70;99.90;;;;;;5073497;23;20474;-71
2023/07/08 04:49:43;;;;;;;5.77;4.70;;;17.80;99.90;;;;;;5013512;28;20211;-71
2023/07/08 04:52:10;;;;;;;5.13;3.87;;;17.90;99.90;;;;;;5013759;28;20891;-71
2023/07/08 04:54:37;;;;;;;6.37;4.47;;;18.00;99.90;;;;;;5013138;28;20466;-71
2023/07/08 04:57:04;;;;;;;5.30;4.43;;;18.10;99.90;;;;;;5013670;28;20881;-71
2023/07/08 04:59:34;;;;;;;5.83;3.90;;;18.30;99.90;;;;;;5024292;28;20500;-71
2023/07/08 05:02:02;;;;;;;5.87;4.73;;;18.40;99.90;;;;;;5029115;28;20466;-71
2023/07/08 05:04:29;;;;;;;5.67;4.37;;;18.60;99.90;;;;;;5028226;28;20459;-71
2023/07/08 05:06:55;;;;;;;6.00;4.13;;;18.70;99.90;;;;;;5028412;28;20958;-70
2023/07/08 05:09:25;;;;;;;5.77;3.93;;;18.80;99.90;;;;;;5028473;28;20488;-71
2023/07/08 05:11:52;;;;;;;5.27;3.73;;;18.90;99.90;;;;;;5028133;28;20460;-71
2023/07/08 05:14:19;;;;;;;5.57;4.40;;;19.00;99.90;;;;;;5028156;28;20492;-72
2023/07/08 05:16:46;;;;;;;6.90;4.40;;;19.10;99.90;;;;;;5028433;28;20471;-71
2023/07/08 05:19:14;;;;;;;6.20;4.40;;;19.20;99.90;;;;;;5028196;28;21056;-71
2023/07/08 05:21:41;;;;;;;6.07;4.30;;;19.30;99.90;;;;;;5013865;28;20484;-71
2023/07/08 05:24:08;;;;;;;11.10;4.63;;;19.40;99.80;;;;;;5008434;28;20468;-71
2023/07/08 05:26:35;;;;;;;6.97;4.57;;;19.50;99.90;;;;;;5008732;28;20509;-71
2023/07/08 05:29:02;;;;;;;6.17;4.50;;;19.60;98.90;;;;;;5010270;28;20495;-70
2023/07/08 05:31:29;;;;;;;5.97;4.27;;;19.70;98.30;;;;;;5028419;28;20457;-69
2023/07/08 05:33:55;;;;;;;5.43;4.20;;;19.90;98.70;;;;;;5028026;28;20468;-71
2023/07/08 05:36:23;;;;;;;5.10;3.70;;;20.00;99.20;;;;;;5028409;28;20460;-72
2023/07/08 05:38:50;;;;;;;6.80;4.60;;;20.00;98.00;;;;;;5028819;28;20515;-71
2023/07/08 05:41:17;;;;;;;7.10;4.50;;;20.00;98.40;;;;;;5025201;28;20510;-71
2023/07/08 05:43:43;;;;;;;6.63;4.90;;;20.00;97.40;;;;;;5008373;28;20469;-71
2023/07/08 05:46:10;;;;;;;5.40;4.63;;;20.10;97.40;;;;;;5008438;28;20474;-71
2023/07/08 05:48:37;;;;;;;5.50;4.23;;;20.20;97.20;;;;;;5008140;28;20529;-69
2023/07/08 05:51:04;;;;;;;5.40;4.00;;;20.20;97.50;;;;;;5008414;28;20474;-71
2023/07/08 05:53:32;;;;;;;5.03;3.83;;;20.30;97.40;;;;;;5007926;28;20477;-71
2023/07/08 05:55:59;;;;;;;5.47;4.10;;;20.30;97.60;;;;;;5007492;28;20527;-71
2023/07/08 05:58:25;;;;;;;5.73;4.30;;;20.40;98.10;;;;;;5007562;28;20857;-71
2023/07/08 06:00:56;;;;;;;7.80;4.03;;;20.40;97.90;;;;;;5007419;28;20482;-72
2023/07/08 06:03:23;;;;;;;7.17;4.63;;;20.50;98.10;;;;;;5007726;28;21030;-71
2023/07/08 06:05:50;;;;;;;5.13;3.80;;;20.40;97.60;;;;;;5015637;28;20712;-69
2023/07/08 06:08:17;;;;;;;5.97;4.00;;;20.50;97.60;;;;;;5017438;28;20875;-71
2023/07/08 06:10:45;;;;;;;5.33;4.07;;;20.50;97.90;;;;;;5008152;28;20461;-72
2023/07/08 06:13:13;;;;;;;5.47;4.27;;;20.60;98.00;;;;;;5007923;28;21256;-72
2023/07/08 06:15:39;;;;;;;6.70;4.40;;;20.60;97.80;;;;;;5007385;28;20548;-71
2023/07/08 06:18:06;;;;;;;5.07;3.67;;;20.70;97.80;;;;;;5006402;28;20489;-69
2023/07/08 06:20:33;;;;;;;7.60;4.93;;;20.70;97.90;;;;;;5007814;28;21287;-70
2023/07/08 06:23:00;;;;;;;5.37;3.80;;;20.80;98.40;;;;;;5007006;28;20477;-69
2023/07/08 06:25:26;;;;;;;7.00;4.50;;;21.00;97.70;;;;;;5027048;28;20462;-69
2023/07/08 06:27:54;;;;;;;6.57;4.70;;;21.10;98.30;;;;;;5027511;28;20486;-72
2023/07/08 06:30:21;;;;;;;4.90;3.70;;;21.20;98.30;;;;;;5027341;28;20484;-72
2023/07/08 06:32:48;;;;;;;5.40;4.57;;;21.30;97.70;;;;;;5028208;28;20469;-72
2023/07/08 06:35:15;;;;;;;6.13;4.00;;;21.40;98.50;;;;;;5008619;28;20473;-73
2023/07/08 06:37:42;;;;;;;4.67;3.73;;;21.40;97.80;;;;;;5007712;28;20519;-72
2023/07/08 06:40:09;;;;;;;5.40;4.17;;;21.50;97.90;;;;;;5007718;28;20485;-72
2023/07/08 06:42:36;;;;;;;6.93;4.13;;;21.60;97.90;;;;;;5007760;28;20985;-72
2023/07/08 06:45:05;;;;;;;5.20;3.80;;;21.60;98.30;;;;;;5006850;28;20460;-72
2023/07/08 06:47:31;;;;;;;4.57;4.00;;;21.70;98.40;;;;;;5009551;28;20489;-71
2023/07/08 06:49:58;;;;;;;5.97;4.30;;;21.70;98.10;;;;;;5011427;28;20462;-71
2023/07/08 06:52:25;;;;;;;5.33;3.77;;;21.80;98.20;;;;;;5011206;28;20820;-71
2023/07/08 06:54:51;;;;;;;8.03;5.07;;;21.90;98.80;;;;;;5011202;28;20825;-71
2023/07/08 06:57:18;;;;;;;5.83;3.80;;;22.00;99.50;;;;;;5011322;28;20486;-71
2023/07/08 06:59:45;;;;;;;5.10;3.50;;;22.10;99.70;;;;;;5011362;28;20461;-71
2023/07/08 07:02:13;;;;;;;6.07;4.23;;;22.10;99.70;;;;;;5011237;28;21008;-70
2023/07/08 07:04:39;;;;;;;4.47;3.30;;;22.20;99.90;;;;;;5008442;28;20484;-70
2023/07/08 07:07:06;;;;;;;5.03;3.70;;;22.20;99.50;;;;;;5026237;28;20471;-71
2023/07/08 07:09:33;;;;;;;4.90;3.60;;;22.20;99.30;;;;;;5030061;28;20492;-70
2023/07/08 07:12:00;;;;;;;5.23;4.13;;;22.20;99.40;;;;;;5030334;28;20463;-70
2023/07/08 07:14:27;;;;;;;4.40;3.20;;;22.20;99.70;;;;;;5021857;28;20486;-70
2023/07/08 07:16:53;;;;;;;5.03;4.00;;;22.20;99.80;;;;;;5010790;28;20640;-71
2023/07/08 07:19:22;;;;;;;7.17;3.63;;;22.20;99.90;;;;;;5009844;28;20486;-69
2023/07/08 07:21:49;;;;;;;5.57;3.33;;;22.20;99.90;;;;;;5010425;28;20519;-70
2023/07/08 07:24:15;;;;;;;4.53;3.87;;;22.30;99.90;;;;;;5009850;28;20888;-70
2023/07/08 07:26:42;;;;;;;5.13;3.80;;;22.30;99.90;;;;;;5010115;28;20475;-71
2023/07/08 07:29:09;;;;;;;4.53;3.03;;;22.30;99.70;;;;;;5018680;28;20527;-70
2023/07/08 07:31:35;;;;;;;3.83;2.90;;;22.30;99.30;;;;;;5029509;28;20467;-70
2023/07/08 07:34:03;;;;;;;4.60;3.47;;;22.30;99.30;;;;;;5029449;28;20468;-70
2023/07/08 07:36:31;;;;;;;5.17;3.70;;;22.30;99.90;;;;;;5029576;28;20472;-69
2023/07/08 07:38:57;;;;;;;3.50;3.17;;;22.40;99.90;;;;;;5029941;28;20490;-69
2023/07/08 07:41:24;;;;;;;3.83;3.17;;;22.40;99.70;;;;;;5029622;28;20478;-70
2023/07/08 07:43:51;;;;;;;4.80;3.97;;;22.50;99.90;;;;;;5029138;28;20477;-71
2023/07/08 07:46:17;;;;;;;3.77;3.00;;;22.50;99.90;;;;;;5029654;28;20556;-70
2023/07/08 07:48:44;;;;;;;4.57;3.77;;;22.50;99.90;;;;;;5028926;28;20492;-71
2023/07/08 07:51:12;;;;;;;5.77;3.60;;;22.50;99.90;;;;;;5029373;28;20463;-71
2023/07/08 07:53:40;;;;;;;5.60;3.70;;;22.50;99.90;;;;;;5029374;28;20468;-70
2023/07/08 07:56:07;;;;;;;3.87;2.93;;;22.50;99.90;;;;;;5009174;28;20481;-70
2023/07/08 07:58:34;;;;;;;4.50;3.60;;;22.60;99.90;;;;;;5010038;28;20484;-70
2023/07/08 08:01:01;;;;;;;4.50;3.13;;;22.60;99.90;;;;;;5009520;28;20531;-70
2023/07/08 08:03:28;;;;;;;5.00;3.60;;;22.60;99.90;;;;;;5008952;28;20473;-70
2023/07/08 08:05:55;;;;;;;5.23;3.20;;;22.70;99.90;;;;;;5007169;28;20474;-70
2023/07/08 08:08:22;;;;;;;3.80;3.40;;;22.80;99.90;;;;;;5009773;28;20492;-71
2023/07/08 08:10:50;;;;;;;4.20;3.20;;;22.80;99.90;;;;;;5009322;28;20492;-70
2023/07/08 08:13:17;;;;;;;3.20;2.70;;;22.80;99.90;;;;;;5007679;28;20863;-70
2023/07/08 08:15:44;;;;;;;4.00;3.03;;;22.80;99.90;;;;;;5009384;28;20468;-71
2023/07/08 08:18:10;;;;;;;3.40;2.90;;;22.90;99.90;;;;;;5008156;28;20492;-71
2023/07/08 08:20:39;;;;;;;3.80;2.57;;;23.00;99.90;;;;;;5009074;28;20488;-71
2023/07/08 08:23:06;;;;;;;3.07;2.63;;;23.00;99.90;;;;;;5006675;28;20504;-71
2023/07/08 08:25:33;;;;;;;3.97;2.80;;;23.10;99.90;;;;;;5025532;28;20469;-71
2023/07/08 08:28:01;;;;;;;3.47;2.67;;;23.20;99.90;;;;;;5009266;28;20492;-71
2023/07/08 08:30:28;;;;;;;3.77;3.13;;;23.30;99.90;;;;;;5009748;28;20465;-71
2023/07/08 08:32:55;;;;;;;3.60;2.70;;;23.30;99.90;;;;;;5009267;28;20476;-71
2023/07/08 08:35:21;;;;;;;4.63;3.03;;;23.40;99.60;;;;;;5009352;28;20476;-71
2023/07/08 08:37:48;;;;;;;3.57;3.20;;;23.50;99.70;;;;;;5009507;28;20486;-71
2023/07/08 08:40:18;;;;;;;3.70;3.10;;;23.50;99.70;;;;;;5009701;28;20477;-71
2023/07/08 08:42:48;;;;;;;4.47;2.80;;;23.50;99.90;;;;;;5009658;28;20485;-71
2023/07/08 08:45:20;;;;;;;3.87;2.90;;;23.60;99.50;;;;;;5008860;28;20904;-71
2023/07/08 08:47:50;;;;;;;3.17;2.53;;;23.70;99.00;;;;;;5009384;28;20496;-70
2023/07/08 08:50:43;;;;;;;2.53;2.20;;;23.90;99.40;;;;;;5008959;28;20976;-71
2023/07/08 08:53:13;;;;;;;2.97;2.73;;;24.10;98.10;;;;;;5005540;28;20477;-71
2023/07/08 08:55:41;;;;;;;2.93;2.60;;;24.10;98.80;;;;;;5013605;28;20465;-71
2023/07/08 08:58:20;;;;;;;2.33;1.90;;;24.30;99.30;;;;;;5022126;28;20559;-71
2023/07/08 09:00:54;;;;;;;2.93;2.07;;;24.50;99.90;;;;;;5003973;28;20513;-71
2023/07/08 09:03:34;;;;;;;2.33;1.90;;;24.70;99.40;;;;;;5012910;28;20550;-70
2023/07/08 09:06:02;;;;;;;2.77;2.53;;;24.90;97.30;;;;;;5011808;28;20824;-71
2023/07/08 09:08:35;;;;;;;3.37;2.47;;;25.20;96.90;;;;;;5012508;28;21006;-71
2023/07/08 09:11:11;;;;;;;6.10;2.60;;;25.40;98.10;;;;;;5012911;28;20475;-71
2023/07/08 09:13:38;;;;;;;2.67;2.40;;;25.60;99.90;;;;;;5031565;28;20471;-71
2023/07/08 09:16:14;;;;;;;2.77;2.20;;;25.90;98.40;;;;;;5013470;28;20922;-71
2023/07/08 09:18:46;;;;;;;3.90;2.40;;;26.00;96.20;;;;;;5012543;28;20487;-71
2023/07/08 09:21:20;;;;;;;2.27;2.07;;;26.00;96.80;;;;;;5012555;28;20496;-70
2023/07/08 09:23:50;;;;;;;2.53;2.23;;;25.90;95.90;;;;;;5040226;23;20498;-71
2023/07/08 09:26:22;;;;;;;3.23;2.60;;;25.90;96.30;;;;;;4973292;28;20478;-71
2023/07/08 09:28:49;;;;;;;3.43;2.80;;;25.90;96.70;;;;;;4986026;28;20866;-71
2023/07/08 09:31:26;;;;;;;4.10;2.70;;;25.90;96.20;;;;;;4992603;28;21009;-70
2023/07/08 09:33:54;;;;;;;4.33;2.80;;;25.90;96.00;;;;;;4976703;28;20469;-70
2023/07/08 09:36:24;;;;;;;2.67;2.47;;;26.00;95.20;;;;;;4972772;28;20478;-71
2023/07/08 09:38:52;;;;;;;2.83;2.53;;;26.00;96.50;;;;;;4972937;28;20483;-69
2023/07/08 09:41:31;;;;;;;4.70;2.10;;;25.90;95.10;;;;;;4973097;28;21015;-70
2023/07/08 09:44:25;;;;;;;2.37;2.17;;;25.90;96.10;;;;;;4972209;28;20491;-70
2023/07/08 09:46:54;;;;;;;3.10;2.70;;;25.80;95.90;;;;;;4970239;28;20557;-70
2023/07/08 09:49:24;;;;;;;2.77;2.53;;;25.80;95.10;;;;;;4972994;28;20486;-70
2023/07/08 09:51:52;;;;;;;3.30;2.70;;;26.00;97.70;;;;;;4972655;28;20470;-71
2023/07/08 09:54:20;;;;;;;5.13;3.00;;;26.20;97.40;;;;;;4968350;28;20467;-69
2023/07/08 09:56:58;;;;;;;2.83;2.50;;;26.30;95.20;;;;;;4973700;28;20458;-70
2023/07/08 09:59:31;;;;;;;4.90;2.57;;;26.40;95.10;;;;;;4973566;28;20468;-70
2023/07/08 10:02:01;;;;;;;3.30;2.30;;;26.40;95.30;;;;;;4973512;28;20482;-70
2023/07/08 10:04:27;;;;;;;3.33;2.80;;;26.30;94.30;;;;;;4972815;28;20478;-69
2023/07/08 10:06:56;;;;;;;4.50;2.03;;;26.20;94.90;;;;;;4973562;28;20999;-70
2023/07/08 10:09:25;;;;;;;3.13;2.60;;;26.10;95.10;;;;;;4973319;28;20513;-70
2023/07/08 10:11:59;;;;;;;3.43;2.53;;;26.00;95.30;;;;;;4972897;28;20462;-70
2023/07/08 10:14:29;;;;;;;3.10;2.30;;;25.90;95.70;;;;;;4972577;28;20962;-70
2023/07/08 10:16:55;;;;;;;2.33;2.13;;;25.70;95.10;;;;;;4973179;28;20466;-69
2023/07/08 10:19:24;;;;;;;2.90;2.10;;;25.60;95.10;;;;;;4973163;28;20495;-70
2023/07/08 10:22:08;;;;;;;2.83;2.33;;;25.60;95.60;;;;;;4975218;28;20489;-70
2023/07/08 10:24:47;;;;;;;2.80;2.40;;;25.80;96.10;;;;;;4991043;28;20476;-69
2023/07/08 10:27:24;;;;;;;3.93;2.23;;;26.00;95.90;;;;;;4977339;28;20851;-70
2023/07/08 10:29:59;;;;;;;3.27;2.10;;;26.30;95.20;;;;;;4964605;28;20477;-69
2023/07/08 10:32:39;;;;;;;3.20;2.30;;;26.50;95.50;;;;;;4972170;28;20470;-70
2023/07/08 10:35:19;;;;;;;2.83;2.27;;;26.50;93.80;;;;;;4971520;28;20481;-70
2023/07/08 10:38:05;;;;;;;3.27;2.90;;;26.60;95.30;;;;;;4971729;28;20990;-70
2023/07/08 10:40:40;;;;;;;2.50;2.30;;;26.80;96.00;;;;;;4972231;28;20471;-70
2023/07/08 10:43:32;;;;;;;3.33;2.93;;;26.90;95.10;;;;;;4977365;28;20492;-70
2023/07/08 10:46:10;;;;;;;2.60;1.87;;;27.00;94.60;;;;;;4990989;28;20466;-69
2023/07/08 10:48:59;;;;;;;2.50;2.13;;;27.20;94.40;;;;;;4991017;28;20549;-70
2023/07/08 10:51:35;;;;;;;2.27;2.07;;;27.40;96.20;;;;;;4990933;28;20580;-69
2023/07/08 10:54:40;;;;;;;3.40;2.43;;;27.60;95.20;;;;;;4990384;28;20467;-69
2023/07/08 10:57:21;;;;;;;2.77;2.40;;;27.80;95.00;;;;;;4984176;28;20477;-69
2023/07/08 10:59:59;;;;;;;2.80;2.23;;;27.80;94.80;;;;;;4990790;28;20467;-70
2023/07/08 11:02:53;;;;;;;3.47;2.40;;;27.70;93.80;;;;;;4990599;28;21005;-69
2023/07/08 11:05:31;;;;;;;3.40;2.60;;;27.80;94.40;;;;;;4990684;28;20470;-70
2023/07/08 11:08:04;;;;;;;2.63;2.30;;;28.00;94.90;;;;;;4990707;28;20474;-69
2023/07/08 11:10:39;;;;;;;4.70;2.47;;;28.10;94.80;;;;;;4990953;28;20477;-69
2023/07/08 11:13:12;;;;;;;3.27;2.50;;;28.00;93.60;;;;;;4964076;28;20466;-69
2023/07/08 11:15:44;;;;;;;3.83;2.73;;;27.90;94.70;;;;;;4970964;28;20507;-69
2023/07/08 11:18:16;;;;;;;3.93;2.20;;;27.70;94.50;;;;;;4971508;28;20483;-68
2023/07/08 11:20:51;;;;;;;3.33;2.83;;;27.60;94.30;;;;;;4970708;28;20475;-69
2023/07/08 11:23:27;;;;;;;3.17;2.63;;;27.50;94.30;;;;;;4970657;28;20864;-69
2023/07/08 11:26:11;;;;;;;2.50;2.27;;;27.40;94.00;;;;;;4971123;28;20467;-70
2023/07/08 11:28:38;;;;;;;2.83;2.23;;;27.40;94.10;;;;;;4970916;28;20487;-69
2023/07/08 11:31:06;;;;;;;2.70;2.50;;;27.40;96.30;;;;;;4970081;28;20507;-69
2023/07/08 11:33:34;;;;;;;2.77;2.10;;;27.50;97.10;;;;;;4970346;28;20467;-70
2023/07/08 11:36:03;;;;;;;3.30;2.03;;;27.70;96.70;;;;;;4970852;28;20479;-69
2023/07/08 11:38:33;;;;;;;3.23;2.67;;;27.90;95.10;;;;;;4970870;28;20516;-69
2023/07/08 11:41:03;;;;;;;3.40;2.30;;;28.10;93.90;;;;;;4971122;28;20499;-70
2023/07/08 11:43:37;;;;;;;3.50;2.47;;;28.20;94.60;;;;;;4970184;28;20487;-69
2023/07/08 11:46:07;;;;;;;2.90;2.60;;;28.40;94.60;;;;;;4971338;28;20466;-70
2023/07/08 11:48:41;;;;;;;2.67;2.10;;;28.60;95.00;;;;;;4970862;28;20537;-69
2023/07/08 11:51:08;;;;;;;3.50;2.47;;;28.80;95.50;;;;;;4970948;28;20478;-70
2023/07/08 11:53:47;;;;;;;2.90;2.50;;;28.90;92.70;;;;;;4969906;28;20474;-69
2023/07/08 11:56:22;;;;;;;3.07;2.37;;;29.00;93.70;;;;;;4970795;28;21005;-69
2023/07/08 11:59:12;;;;;;;2.67;2.27;;;29.20;93.60;;;;;;4970769;28;20486;-69
2023/07/08 12:01:41;;;;;;;2.53;2.33;;;29.30;93.90;;;;;;4970319;28;20474;-69
2023/07/08 12:04:25;;;;;;;3.17;2.27;;;29.30;93.10;;;;;;4970180;28;20475;-69
2023/07/08 12:07:03;;;;;;;3.27;2.20;;;29.30;94.10;;;;;;4970192;28;20494;-70
2023/07/08 12:09:38;;;;;;;2.90;2.13;;;29.40;94.70;;;;;;4970791;28;20852;-69
2023/07/08 12:12:11;;;;;;;3.20;2.50;;;29.50;92.90;;;;;;4970556;28;20459;-70
2023/07/08 12:14:38;;;;;;;2.57;2.30;;;29.70;92.80;;;;;;4969958;28;20467;-69
2023/07/08 12:17:10;;;;;;;2.70;2.20;;;29.80;93.30;;;;;;4970451;28;20470;-69
2023/07/08 12:19:41;;;;;;;3.07;2.63;;;29.90;93.40;;;;;;4970254;28;20895;-69
2023/07/08 12:22:11;;;;;;;2.40;2.20;;;30.10;93.50;;;;;;4970997;28;20475;-69
2023/07/08 12:24:40;;;;;;;2.43;2.10;;;30.10;92.70;;;;;;4970642;28;20482;-69
2023/07/08 12:27:10;;;;;;;3.13;2.70;;;30.10;94.00;;;;;;4971033;28;20836;-69
2023/07/08 12:29:37;;;;;;;2.40;2.20;;;30.20;91.50;;;;;;4970870;28;20542;-69
2023/07/08 12:32:05;;;;;;;4.10;2.43;;;30.20;91.20;;;;;;4970486;28;20466;-69
2023/07/08 12:34:32;;;;;;;3.47;2.63;;;30.20;92.40;;;;;;4970830;28;20463;-69
2023/07/08 12:36:59;;;;;;;2.50;1.80;;;30.30;93.10;;;;;;4973889;28;20470;-69
2023/07/08 12:39:26;;;;;;;2.50;2.30;;;30.40;92.70;;;;;;4975119;28;20974;-69
2023/07/08 12:41:54;;;;;;;2.97;2.50;;;30.40;91.70;;;;;;4974521;28;20892;-69
2023/07/08 12:44:22;;;;;;;3.30;2.27;;;30.50;91.80;;;;;;4974423;28;20479;-69
2023/07/08 12:46:52;;;;;;;3.30;2.50;;;30.50;92.20;;;;;;4992893;28;20462;-68
2023/07/08 12:49:20;;;;;;;2.83;2.30;;;30.60;91.50;;;;;;4994394;28;20493;-68
2023/07/08 12:51:48;;;;;;;3.17;2.30;;;30.60;90.40;;;;;;4994501;28;20462;-69
2023/07/08 12:54:15;;;;;;;2.50;2.13;;;30.70;89.20;;;;;;4993975;28;20953;-69
2023/07/08 12:56:46;;;;;;;2.90;2.17;;;30.70;91.40;;;;;;4994213;28;20469;-70